Terminal Aerodrome Forecast
Issued by NWS

Home | Current Version | Previous Version | Text Only | Print | Product List | Glossary On
Versions: 1 2 3 4 5 6 7 8 9 10 11 12 13 14 15 16 17
000
FTAK31 PAJN 102338
TAFASI
TAF
PASI 102338Z 1100/1124 10020G30KT P6SM -RA SCT035 OVC060
      WS020/12050KT
     FM110200 12026G38KT 4SM RA BR BKN020 OVC030 WS020/14060KT
     FM110900 12018G28KT 5SM -RA BR BKN018 OVC025 WS020/16040KT=

USA.gov is the U.S. government's official web portal to all federal, state and local government web resources and services.